createdAt,value
2018-12-10T00:01:20.363Z,4.42
2018-12-10T00:03:53.072Z,4.33
2018-12-10T00:06:25.632Z,4.40
2018-12-10T00:08:56.106Z,4.18
2018-12-10T00:11:26.247Z,4.31
2018-12-10T00:13:56.441Z,4.40
2018-12-10T00:16:26.774Z,4.29
2018-12-10T00:18:57.204Z,4.35
2018-12-10T00:21:27.514Z,4.49
2018-12-10T00:23:58.369Z,4.28
2018-12-10T00:26:28.550Z,4.28
2018-12-10T00:28:58.950Z,4.22
2018-12-10T00:31:29.266Z,4.39
2018-12-10T00:33:59.873Z,4.46
2018-12-10T00:36:30.264Z,4.29
2018-12-10T00:39:00.523Z,4.19
2018-12-10T00:41:30.950Z,4.18
2018-12-10T00:44:01.165Z,4.19
2018-12-10T00:46:31.385Z,4.06
2018-12-10T00:49:01.615Z,4.04
2018-12-10T00:51:32.728Z,4.06
2018-12-10T00:54:03.170Z,4.05
2018-12-10T00:56:33.409Z,4.19
2018-12-10T00:59:03.821Z,4.25
2018-12-10T01:01:34.312Z,4.25
2018-12-10T01:04:05.089Z,4.13
2018-12-10T01:06:35.595Z,3.92
2018-12-10T01:09:07.110Z,3.98
2018-12-10T01:11:38.488Z,3.93
2018-12-10T01:14:08.888Z,3.92
2018-12-10T01:16:39.842Z,3.90
2018-12-10T01:19:09.958Z,3.87
2018-12-10T01:21:40.194Z,3.87
2018-12-10T01:24:11.457Z,4.00
2018-12-10T01:26:41.728Z,4.10
2018-12-10T01:29:11.913Z,3.73
2018-12-10T01:31:42.191Z,3.82
2018-12-10T01:34:12.969Z,3.67
2018-12-10T01:36:43.165Z,3.55
2018-12-10T01:39:13.372Z,3.40
2018-12-10T01:41:43.844Z,3.28
2018-12-10T01:44:14.039Z,3.13
2018-12-10T01:46:44.209Z,3.19
2018-12-10T01:49:14.280Z,3.33
2018-12-10T01:51:44.642Z,3.38
2018-12-10T01:54:14.938Z,3.62
2018-12-10T01:56:45.177Z,3.71
2018-12-10T01:59:16.066Z,3.77
2018-12-10T02:01:46.360Z,3.90
2018-12-10T02:04:16.557Z,3.62
2018-12-10T02:06:46.852Z,3.44
2018-12-10T02:09:17.037Z,3.40
2018-12-10T02:11:47.325Z,3.39
2018-12-10T02:14:17.475Z,3.36
2018-12-10T02:16:47.691Z,3.41
2018-12-10T02:19:19.123Z,3.49
2018-12-10T02:21:49.376Z,3.54
2018-12-10T02:24:19.599Z,3.48
2018-12-10T02:26:49.971Z,3.33
2018-12-10T02:29:20.153Z,3.12
2018-12-10T02:31:50.565Z,3.08
2018-12-10T02:34:20.653Z,3.14
2018-12-10T02:36:50.946Z,3.00
2018-12-10T02:39:21.179Z,3.19
2018-12-10T02:41:51.431Z,3.44
2018-12-10T02:44:21.579Z,3.46
2018-12-10T02:46:51.910Z,3.48
2018-12-10T02:49:22.083Z,3.41
2018-12-10T02:51:53.366Z,3.59
2018-12-10T02:54:23.604Z,3.65
2018-12-10T02:56:54.053Z,3.53
2018-12-10T02:59:24.228Z,3.61
2018-12-10T03:01:54.474Z,3.30
2018-12-10T03:04:24.925Z,3.31
2018-12-10T03:06:56.178Z,3.25
2018-12-10T03:09:26.349Z,3.07
2018-12-10T03:11:56.623Z,3.03
2018-12-10T03:14:26.888Z,3.05
2018-12-10T03:16:57.035Z,3.07
2018-12-10T03:19:27.211Z,2.88
2018-12-10T03:21:57.550Z,2.98
2018-12-10T03:24:27.808Z,3.10
2018-12-10T03:26:58.351Z,3.07
2018-12-10T03:29:28.611Z,2.94
2018-12-10T03:31:58.776Z,2.91
2018-12-10T03:34:29.082Z,2.78
2018-12-10T03:36:59.345Z,2.86
2018-12-10T03:39:29.381Z,2.90
2018-12-10T03:41:59.698Z,2.86
2018-12-10T03:44:29.991Z,2.96
2018-12-10T03:47:00.232Z,3.11
2018-12-10T03:49:30.497Z,3.25
2018-12-10T03:52:00.771Z,3.50
2018-12-10T03:54:31.019Z,3.55
2018-12-10T03:57:01.274Z,3.62
2018-12-10T03:59:31.686Z,3.40
2018-12-10T04:02:01.899Z,3.32
2018-12-10T04:04:32.124Z,3.49
2018-12-10T04:07:02.255Z,3.53
2018-12-10T04:09:32.491Z,3.64
2018-12-10T04:12:02.772Z,3.76
2018-12-10T04:14:33.436Z,3.80
2018-12-10T04:17:03.904Z,3.94
2018-12-10T04:19:34.237Z,4.07
2018-12-10T04:22:04.498Z,3.88
2018-12-10T04:24:34.886Z,3.75
2018-12-10T04:27:05.038Z,3.60
2018-12-10T04:29:35.386Z,3.66
2018-12-10T04:32:05.561Z,3.66
2018-12-10T04:34:37.242Z,3.71
2018-12-10T04:37:07.887Z,3.56
2018-12-10T04:39:38.164Z,3.54
2018-12-10T04:42:08.354Z,3.48
2018-12-10T04:44:38.633Z,3.43
2018-12-10T04:47:08.847Z,3.39
2018-12-10T04:49:39.128Z,3.39
2018-12-10T04:52:09.239Z,3.41
2018-12-10T04:54:39.388Z,3.33
2018-12-10T04:57:09.637Z,3.41
2018-12-10T04:59:40.876Z,3.31
2018-12-10T05:02:11.548Z,3.32
2018-12-10T05:04:41.784Z,3.15
2018-12-10T05:07:12.115Z,3.18
2018-12-10T05:09:42.522Z,3.02
2018-12-10T05:12:12.812Z,3.13
2018-12-10T05:14:43.043Z,3.29
2018-12-10T05:17:13.234Z,3.13
2018-12-10T05:19:43.418Z,3.05
2018-12-10T05:22:13.500Z,3.04
2018-12-10T05:24:43.848Z,2.98
2018-12-10T05:27:14.186Z,3.01
2018-12-10T05:29:44.332Z,3.20
2018-12-10T05:32:14.396Z,3.22
2018-12-10T05:34:44.708Z,3.18
2018-12-10T05:37:14.996Z,3.21
2018-12-10T05:39:45.176Z,3.26
2018-12-10T05:42:15.206Z,3.26
2018-12-10T05:44:45.134Z,3.27
2018-12-10T05:47:15.189Z,3.32
2018-12-10T05:49:45.314Z,3.33
2018-12-10T05:52:15.645Z,3.46
2018-12-10T05:54:45.986Z,3.59
2018-12-10T05:57:16.299Z,3.62
2018-12-10T05:59:46.682Z,3.81
2018-12-10T06:02:17.020Z,3.91
2018-12-10T06:04:47.303Z,4.04
2018-12-10T06:07:17.437Z,4.16
2018-12-10T06:09:47.579Z,4.18
2018-12-10T06:12:17.907Z,4.31
2018-12-10T06:14:48.454Z,4.33
2018-12-10T06:17:18.688Z,4.42
2018-12-10T06:19:48.823Z,4.21
2018-12-10T06:22:19.227Z,4.23
2018-12-10T06:24:49.377Z,4.20
2018-12-10T06:27:19.784Z,4.06
2018-12-10T06:29:50.117Z,4.00
2018-12-10T06:32:20.343Z,4.11
2018-12-10T06:34:50.421Z,4.26
2018-12-10T06:37:20.767Z,3.99
2018-12-10T06:39:51.062Z,3.99
2018-12-10T06:42:21.330Z,4.06
2018-12-10T06:44:51.606Z,4.11
2018-12-10T06:47:22.651Z,4.23
2018-12-10T06:49:52.887Z,4.25
2018-12-10T06:52:23.134Z,4.39
2018-12-10T06:54:53.327Z,4.47
2018-12-10T06:57:23.432Z,4.50
2018-12-10T06:59:53.580Z,4.60
2018-12-10T07:02:23.802Z,4.63
2018-12-10T07:04:53.896Z,4.64
2018-12-10T07:07:24.192Z,4.70
2018-12-10T07:09:54.395Z,4.71
2018-12-10T07:13:53.914Z,4.78
2018-12-10T07:16:24.408Z,4.73
2018-12-10T07:18:54.752Z,4.78
2018-12-10T07:21:24.898Z,4.67
2018-12-10T07:23:55.169Z,4.77
2018-12-10T07:26:25.488Z,4.72
2018-12-10T07:28:55.729Z,4.71
2018-12-10T07:31:25.944Z,4.72
2018-12-10T07:33:56.308Z,4.74
2018-12-10T07:36:26.573Z,4.75
2018-12-10T07:38:56.803Z,4.76
2018-12-10T07:41:27.041Z,4.69
2018-12-10T07:43:57.504Z,4.76
2018-12-10T07:46:27.698Z,4.78
2018-12-10T07:48:57.934Z,4.75
2018-12-10T07:51:28.072Z,4.75
2018-12-10T07:53:58.150Z,4.79
2018-12-10T07:56:29.048Z,4.72
2018-12-10T07:58:59.851Z,4.72
2018-12-10T08:01:30.077Z,4.73
2018-12-10T08:04:00.321Z,4.86
2018-12-10T08:06:30.561Z,4.91
2018-12-10T08:09:00.816Z,4.82
2018-12-10T08:11:31.891Z,4.70
2018-12-10T08:14:03.635Z,4.53
2018-12-10T08:16:34.069Z,4.70
2018-12-10T08:19:04.417Z,4.74
2018-12-10T08:21:34.662Z,4.70
2018-12-10T08:24:04.863Z,4.80
2018-12-10T08:26:35.115Z,4.75
2018-12-10T08:30:57.535Z,4.81
2018-12-10T08:31:37.496Z,4.86
2018-12-10T08:34:07.926Z,4.89
2018-12-10T08:36:38.864Z,4.79
2018-12-10T08:39:09.170Z,4.61
2018-12-10T08:41:39.441Z,4.77
2018-12-10T08:44:10.357Z,4.66
2018-12-10T08:46:40.626Z,4.84
2018-12-10T08:49:10.845Z,4.56
2018-12-10T08:51:41.119Z,4.70
2018-12-10T08:54:11.649Z,4.86
2018-12-10T08:56:41.976Z,4.94
2018-12-10T08:59:12.328Z,4.97
2018-12-10T09:01:42.555Z,4.97
2018-12-10T09:04:12.809Z,5.03
2018-12-10T09:06:43.064Z,5.18
2018-12-10T09:09:13.171Z,5.25
2018-12-10T09:11:43.299Z,5.10
2018-12-10T09:14:13.513Z,5.23
2018-12-10T09:16:43.749Z,5.38
2018-12-10T09:19:14.000Z,5.48
2018-12-10T09:21:44.823Z,5.48
2018-12-10T09:24:15.005Z,5.55
2018-12-10T09:26:45.425Z,5.64
2018-12-10T09:29:15.714Z,5.73
2018-12-10T09:31:45.985Z,5.82
2018-12-10T09:34:16.201Z,5.83
2018-12-10T09:36:47.225Z,5.99
2018-12-10T09:39:17.420Z,6.13
2018-12-10T09:41:47.532Z,6.33
2018-12-10T09:44:17.871Z,6.18
2018-12-10T09:46:48.210Z,6.29
2018-12-10T09:49:19.004Z,6.17
2018-12-10T09:51:49.413Z,6.11
2018-12-10T09:54:19.812Z,5.97
2018-12-10T09:56:50.155Z,6.10
2018-12-10T09:59:20.367Z,6.21
2018-12-10T10:01:50.610Z,6.11
2018-12-10T10:04:20.997Z,6.30
2018-12-10T10:06:51.414Z,6.35
2018-12-10T10:09:22.124Z,6.25
2018-12-10T10:11:52.399Z,6.16
2018-12-10T10:14:22.681Z,6.25
2018-12-10T10:16:52.897Z,6.11
2018-12-10T10:19:23.202Z,6.02
2018-12-10T10:21:53.563Z,6.10
2018-12-10T10:24:23.926Z,6.23
2018-12-10T10:26:54.003Z,6.39
2018-12-10T10:29:24.271Z,6.46
2018-12-10T10:31:55.249Z,6.51
2018-12-10T10:34:25.577Z,6.55
2018-12-10T10:36:55.695Z,6.65
2018-12-10T10:39:26.260Z,6.62
2018-12-10T10:41:57.430Z,6.52
2018-12-10T10:44:27.874Z,6.50
2018-12-10T10:46:58.172Z,6.49
2018-12-10T10:49:28.475Z,6.37
2018-12-10T10:51:58.924Z,6.62
2018-12-10T10:54:29.329Z,6.60
2018-12-10T10:56:59.455Z,6.80
2018-12-10T10:59:29.603Z,6.72
2018-12-10T11:02:04.959Z,6.90
2018-12-10T11:04:37.631Z,7.10
2018-12-10T11:07:07.365Z,6.89
2018-12-10T11:09:37.743Z,6.93
2018-12-10T11:12:08.083Z,6.89
2018-12-10T11:14:38.904Z,6.90
2018-12-10T11:17:09.613Z,6.95
2018-12-10T11:19:39.820Z,6.92
2018-12-10T11:22:10.273Z,6.97
2018-12-10T11:24:41.274Z,6.67
2018-12-10T11:27:11.642Z,6.82
2018-12-10T11:29:42.026Z,6.80
2018-12-10T11:32:12.423Z,6.65
2018-12-10T11:34:42.621Z,6.58
2018-12-10T11:37:12.874Z,6.59
2018-12-10T11:39:43.225Z,6.51
2018-12-10T11:42:13.562Z,6.69
2018-12-10T11:44:43.710Z,6.61
2018-12-10T11:47:14.056Z,6.61
2018-12-10T11:49:44.403Z,6.63
2018-12-10T11:52:14.601Z,6.90
2018-12-10T11:54:44.702Z,7.09
2018-12-10T11:57:14.876Z,7.24
2018-12-10T11:59:46.177Z,7.18
2018-12-10T12:02:16.516Z,7.30
2018-12-10T12:04:47.107Z,7.49
2018-12-10T12:07:19.415Z,7.27
2018-12-10T12:09:49.681Z,7.29
2018-12-10T12:12:20.046Z,7.29
2018-12-10T12:14:50.347Z,7.28
2018-12-10T12:17:21.145Z,7.17
2018-12-10T12:19:51.587Z,7.02
2018-12-10T12:22:21.931Z,6.91
2018-12-10T12:24:52.054Z,6.85
2018-12-10T12:27:23.933Z,6.75
2018-12-10T12:29:54.280Z,6.80
2018-12-10T12:32:24.589Z,6.78
2018-12-10T12:34:54.844Z,6.87
2018-12-10T12:37:25.104Z,6.89
2018-12-10T12:39:55.402Z,6.76
2018-12-10T12:42:25.656Z,6.82
2018-12-10T12:44:55.909Z,6.84
2018-12-10T12:47:26.110Z,6.76
2018-12-10T12:49:56.429Z,6.74
2018-12-10T12:52:26.727Z,6.58
2018-12-10T12:54:56.823Z,6.64
2018-12-10T12:57:27.203Z,6.63
2018-12-10T12:59:57.442Z,6.65
2018-12-10T13:02:27.625Z,6.75
2018-12-10T13:04:57.864Z,6.77
2018-12-10T13:07:28.158Z,6.93
2018-12-10T13:09:58.481Z,6.92
2018-12-10T13:12:28.694Z,6.89
2018-12-10T13:14:58.984Z,6.88
2018-12-10T13:17:29.217Z,6.89
2018-12-10T13:19:59.637Z,6.95
2018-12-10T13:22:29.944Z,6.92
2018-12-10T13:25:00.195Z,7.01
2018-12-10T13:27:30.451Z,7.14
2018-12-10T13:30:00.697Z,7.17
2018-12-10T13:32:31.139Z,7.19
2018-12-10T13:35:01.441Z,7.16
2018-12-10T13:37:31.742Z,7.04
2018-12-10T13:40:01.890Z,7.12
2018-12-10T13:42:32.139Z,7.09
2018-12-10T13:45:03.050Z,6.99
2018-12-10T13:47:33.428Z,6.99
2018-12-10T13:50:03.938Z,6.85
2018-12-10T13:52:34.292Z,6.68
2018-12-10T13:55:04.716Z,6.79
2018-12-10T13:57:34.977Z,6.76
2018-12-10T14:00:05.866Z,6.74
2018-12-10T14:02:36.820Z,6.70
2018-12-10T14:05:11.182Z,6.68
2018-12-10T14:07:41.538Z,6.63
2018-12-10T14:10:11.662Z,6.68
2018-12-10T14:12:41.820Z,6.50
2018-12-10T14:15:12.115Z,6.46
2018-12-10T14:17:42.404Z,6.45
2018-12-10T14:20:12.717Z,6.48
2018-12-10T14:22:43.093Z,6.48
2018-12-10T14:25:23.052Z,6.61
2018-12-10T14:27:53.565Z,6.56
2018-12-10T14:30:24.153Z,6.57
2018-12-10T14:32:54.660Z,6.61
2018-12-10T14:35:24.713Z,6.54
2018-12-10T14:37:54.918Z,6.59
2018-12-10T14:40:25.189Z,6.59
2018-12-10T14:42:57.285Z,6.56
2018-12-10T14:45:27.681Z,6.41
2018-12-10T14:47:58.251Z,6.51
2018-12-10T14:50:28.396Z,6.52
2018-12-10T14:52:58.674Z,6.51
2018-12-10T14:55:29.026Z,6.43
2018-12-10T14:57:59.333Z,6.33
2018-12-10T15:00:29.545Z,6.33
2018-12-10T15:02:59.715Z,6.28
2018-12-10T15:05:30.144Z,6.19
2018-12-10T15:08:00.343Z,6.15
2018-12-10T15:10:30.695Z,6.22
2018-12-10T15:13:01.005Z,6.18
2018-12-10T15:15:31.509Z,5.98
2018-12-10T15:18:01.746Z,5.99
2018-12-10T15:20:31.993Z,5.96
2018-12-10T15:23:02.213Z,6.06
2018-12-10T15:25:32.572Z,6.13
2018-12-10T15:28:03.078Z,6.17
2018-12-10T15:30:33.366Z,6.14
2018-12-10T15:33:03.660Z,6.10
2018-12-10T15:35:34.027Z,6.07
2018-12-10T15:38:04.346Z,6.14
2018-12-10T15:40:34.625Z,6.08
2018-12-10T15:43:04.776Z,6.08
2018-12-10T15:45:35.036Z,6.02
2018-12-10T15:48:05.636Z,5.96
2018-12-10T15:50:35.927Z,5.97
2018-12-10T15:53:06.136Z,5.96
2018-12-10T15:55:36.487Z,5.92
2018-12-10T15:58:06.761Z,5.83
2018-12-10T16:00:37.265Z,5.82
2018-12-10T16:03:07.533Z,5.62
2018-12-10T16:05:37.756Z,5.61
2018-12-10T16:08:08.001Z,5.54
2018-12-10T16:10:38.300Z,5.52
2018-12-10T16:13:08.807Z,5.52
2018-12-10T16:15:39.185Z,5.42
2018-12-10T16:18:09.487Z,5.30
2018-12-10T16:20:39.808Z,5.34
2018-12-10T16:23:10.409Z,5.28
2018-12-10T16:25:40.633Z,5.16
2018-12-10T16:28:11.052Z,5.14
2018-12-10T16:30:41.379Z,5.10
2018-12-10T16:33:12.059Z,5.10
2018-12-10T16:35:42.516Z,5.10
2018-12-10T16:38:12.797Z,5.10
2018-12-10T16:40:42.902Z,4.97
2018-12-10T16:43:13.337Z,4.96
2018-12-10T16:45:43.688Z,4.95
2018-12-10T16:48:13.924Z,4.93
2018-12-10T16:50:44.266Z,4.93
2018-12-10T16:53:14.608Z,4.93
2018-12-10T16:55:44.817Z,4.88
2018-12-10T16:58:14.972Z,4.97
2018-12-10T17:00:45.451Z,4.95
2018-12-10T17:03:15.818Z,4.84
2018-12-10T17:05:46.193Z,4.95
2018-12-10T17:08:16.444Z,4.96
2018-12-10T17:10:46.844Z,4.96
2018-12-10T17:13:17.546Z,5.00
2018-12-10T17:15:47.977Z,4.99
2018-12-10T17:18:18.196Z,4.96
2018-12-10T17:20:48.671Z,4.98
2018-12-10T17:23:20.024Z,4.95
2018-12-10T17:25:50.299Z,5.02
2018-12-10T17:28:20.598Z,4.99
2018-12-10T17:30:50.888Z,4.92
2018-12-10T17:33:21.166Z,4.94
2018-12-10T17:35:51.532Z,5.00
2018-12-10T17:38:21.640Z,5.04
2018-12-10T17:42:21.179Z,5.03
2018-12-10T17:44:51.599Z,5.03
2018-12-10T17:47:21.918Z,4.93
2018-12-10T17:49:52.609Z,4.94
2018-12-10T17:52:23.004Z,4.99
2018-12-10T17:54:54.559Z,4.95
2018-12-10T17:57:24.924Z,4.99
2018-12-10T17:59:55.151Z,4.95
2018-12-10T18:02:25.579Z,4.96
2018-12-10T18:04:56.892Z,4.94
2018-12-10T18:07:27.234Z,4.97
2018-12-10T18:09:57.453Z,5.03
2018-12-10T18:12:27.657Z,5.09
2018-12-10T18:14:58.093Z,5.10
2018-12-10T18:17:28.171Z,5.00
2018-12-10T18:19:58.326Z,5.03
2018-12-10T18:22:28.755Z,5.05
2018-12-10T18:24:58.985Z,5.02
2018-12-10T18:27:29.398Z,5.12
2018-12-10T18:29:59.946Z,5.07
2018-12-10T18:32:30.322Z,5.10
2018-12-10T18:35:00.836Z,5.10
2018-12-10T18:37:31.132Z,5.15
2018-12-10T18:40:01.507Z,5.20
2018-12-10T18:42:31.808Z,5.17
2018-12-10T18:45:02.747Z,5.13
2018-12-10T18:47:33.059Z,5.16
2018-12-10T18:50:03.428Z,5.21
2018-12-10T18:52:33.569Z,5.27
2018-12-10T18:55:04.120Z,5.28
2018-12-10T18:57:34.246Z,5.22
2018-12-10T19:00:06.476Z,5.19
2018-12-10T19:02:36.755Z,5.18
2018-12-10T19:05:07.310Z,5.19
2018-12-10T19:07:37.786Z,5.15
2018-12-10T19:10:09.349Z,5.21
2018-12-10T19:12:39.754Z,5.13
2018-12-10T19:15:11.103Z,5.11
2018-12-10T19:17:42.345Z,5.12
2018-12-10T19:20:13.695Z,5.05
2018-12-10T19:22:44.178Z,5.13
2018-12-10T19:25:14.460Z,4.80
2018-12-10T19:27:44.820Z,5.13
2018-12-10T19:30:15.274Z,5.09
2018-12-10T19:32:45.597Z,5.04
2018-12-10T19:35:15.870Z,5.06
2018-12-10T19:37:46.050Z,5.06
2018-12-10T19:40:16.223Z,5.06
2018-12-10T19:42:46.498Z,5.05
2018-12-10T19:45:16.726Z,5.07
2018-12-10T19:47:47.290Z,5.06
2018-12-10T19:50:17.740Z,5.06
2018-12-10T19:52:49.627Z,4.97
2018-12-10T19:55:20.582Z,4.92
2018-12-10T19:57:51.877Z,4.92
2018-12-10T20:00:23.915Z,4.96
2018-12-10T20:02:54.155Z,4.96
2018-12-10T20:05:28.443Z,4.96
2018-12-10T20:07:58.795Z,4.95
2018-12-10T20:10:29.196Z,4.92
2018-12-10T20:12:59.427Z,4.87
2018-12-10T20:15:29.715Z,4.86
2018-12-10T20:18:00.085Z,4.84
2018-12-10T20:20:30.225Z,4.86
2018-12-10T20:23:00.461Z,4.74
2018-12-10T20:25:30.732Z,4.74
2018-12-10T20:28:01.143Z,4.69
2018-12-10T20:30:31.358Z,4.60
2018-12-10T20:33:01.501Z,4.49
2018-12-10T20:35:31.713Z,4.49
2018-12-10T20:38:02.027Z,4.44
2018-12-10T20:40:32.335Z,4.41
2018-12-10T20:43:02.582Z,4.34
2018-12-10T20:45:32.722Z,4.38
2018-12-10T20:48:02.968Z,4.37
2018-12-10T20:50:33.137Z,4.41
2018-12-10T20:53:03.198Z,4.46
2018-12-10T20:55:33.573Z,4.45
2018-12-10T20:58:03.830Z,4.42
2018-12-10T21:00:34.106Z,4.43
2018-12-10T21:03:04.458Z,4.35
2018-12-10T21:07:03.789Z,4.39
2018-12-10T21:09:34.131Z,4.41
2018-12-10T21:12:04.659Z,4.45
2018-12-10T21:14:34.889Z,4.48
2018-12-10T21:17:05.132Z,4.41
2018-12-10T21:19:35.560Z,4.38
2018-12-10T21:22:05.629Z,4.46
2018-12-10T21:24:36.105Z,4.45
2018-12-10T21:27:07.272Z,4.44
2018-12-10T21:29:37.572Z,4.47
2018-12-10T21:32:07.927Z,4.48
2018-12-10T21:34:38.068Z,4.48
2018-12-10T21:37:08.334Z,4.46
2018-12-10T21:39:38.555Z,4.47
2018-12-10T21:42:08.785Z,4.50
2018-12-10T21:44:39.028Z,4.40
2018-12-10T21:47:11.060Z,4.34
2018-12-10T21:49:41.284Z,4.38
2018-12-10T21:52:12.459Z,4.51
2018-12-10T21:54:42.688Z,4.47
2018-12-10T21:57:13.088Z,4.48
2018-12-10T21:59:43.273Z,4.61
2018-12-10T22:02:13.414Z,4.69
2018-12-10T22:04:43.659Z,4.67
2018-12-10T22:07:13.961Z,4.70
2018-12-10T22:09:44.179Z,4.72
2018-12-10T22:12:14.482Z,4.68
2018-12-10T22:14:44.556Z,4.66
2018-12-10T22:17:14.847Z,4.68
2018-12-10T22:19:45.030Z,4.71
2018-12-10T22:22:15.313Z,4.71
2018-12-10T22:24:45.350Z,4.74
2018-12-10T22:27:15.689Z,4.66
2018-12-10T22:29:46.137Z,4.62
2018-12-10T22:32:16.341Z,4.51
2018-12-10T22:34:46.585Z,4.55
2018-12-10T22:37:16.819Z,4.49
2018-12-10T22:39:47.059Z,4.40
2018-12-10T22:42:17.573Z,4.41
2018-12-10T22:44:47.847Z,4.37
2018-12-10T22:47:18.377Z,4.35
2018-12-10T22:49:48.651Z,4.32
2018-12-10T22:52:18.895Z,4.31
2018-12-10T22:54:49.464Z,4.30
2018-12-10T22:57:19.585Z,4.26
2018-12-10T22:59:49.825Z,4.24
2018-12-10T23:02:20.136Z,4.22
2018-12-10T23:04:51.625Z,4.16
2018-12-10T23:07:22.891Z,4.10
2018-12-10T23:09:54.021Z,4.08
2018-12-10T23:12:24.392Z,4.06
2018-12-10T23:14:54.584Z,4.01
2018-12-10T23:17:24.947Z,3.97
2018-12-10T23:19:55.133Z,3.91
2018-12-10T23:22:25.317Z,3.87
2018-12-10T23:24:55.590Z,3.89
2018-12-10T23:27:25.718Z,3.91
2018-12-10T23:29:56.654Z,3.92
2018-12-10T23:32:26.928Z,3.93
2018-12-10T23:34:57.185Z,3.91
2018-12-10T23:37:28.371Z,3.90
2018-12-10T23:39:58.591Z,3.88
2018-12-10T23:42:29.099Z,3.86
2018-12-10T23:44:59.429Z,3.82
2018-12-10T23:47:29.779Z,3.84
2018-12-10T23:49:59.883Z,3.86
2018-12-10T23:52:30.014Z,3.81
2018-12-10T23:55:00.322Z,3.75
2018-12-10T23:57:30.545Z,3.77
